Pagrindinis puslapis
METAR-TAF:

METAR-TAF

Oro uostai :

Džida, Saudo Arabija

platuma: 21-42N, ilguma: 039-11E, Aukštis: 15 m

Dabartinis oras

Ataskaita buvo paskelbta 19 minutes, ne 11:00 UTC
Vėjas 8 kt iš Pietų/Pietvakarių
Temperatūra 35°C
Drėgmė 53%
Slėgis 1007 hPa
Matomumas 10 km arba daugiau
Mažai debesys ne aukštis 4000 ft

METAR: OEJN 251100Z 21008KT 9999 FEW040 35/24 Q1007 NOSIG

Laikas: 14:19 (11:19 UTC)

Prognozė

Ataskaita buvo paskelbta 6 valandos ir 19 minutes, ne 05:00 UTC
Prognozė galioja nuo 25 metu 06 UTC su 26 metu 12 UTC
Vėjas 10 kt iš Pietvakarių
Matomumas: 7000 m
Tapsmas
nuo 25 metu 14 UTC su 25 metu 16 UTC
Vėjas 6 kt iš Vakarų

TAF: OEJN 250500Z 2506/2612 22010KT 7000 NSC BECMG 2514/2516 27006KT

Orai ataskaitas ir orų prognozės (METAR, TAF).

turimą stotys yra geltonos ir raudonos taškus žemėlapyje.

Perkelti pele per norėdami pamatyti stoties vardą.

Tada spustelėkite, norėdami matyti oro stebėjimo ir prognozės.

Norėdami pakeisti žemėlapį: spustelėkite ant žalios mygtukų su juodo kryžiaus žemyn,; žalią mygtuką su brūkšneliu, jei norite nutolinti; arba žalių rodyklių gretimoms žemėlapius.


METAR-TAF: